EZY63T EGGP-EGNS
Flight info
| Callsign | EZY63T |
|---|---|
| Flight time | 0h 20m |
| Altitude | 16000 |
| Route | WAL M146 LUSOD DCT IOM |
| Aircraft | A319/M-SDE3FGHIRWY/LB1 |
Departure
| Time | 2026-04-16 08:16 |
|---|---|
| Airport | Liverpool John Lennon Airport (EGGP) |
Arrival
| Time | 2026-04-16 08:37 |
|---|---|
| Airport | Isle of Man Airport (EGNS) |
| Time | Latitude | Longitude | Altitude | Speed | Heading |
|---|---|---|---|---|---|
| 2026-04-16 08:04 | 53.33632 | -2.85198 | 88 ft | 0 kts | 265° |
| 2026-04-16 08:08 | 53.33633 | -2.85174 | 88 ft | 2 kts | 265° |
| 2026-04-16 08:08 | 53.33635 | -2.85148 | 88 ft | 2 kts | 265° |
| 2026-04-16 08:09 | 53.33636 | -2.85122 | 88 ft | 2 kts | 265° |
| 2026-04-16 08:09 | 53.33637 | -2.85103 | 89 ft | 2 kts | 265° |
| 2026-04-16 08:09 | 53.33645 | -2.85079 | 89 ft | 2 kts | 210° |
| 2026-04-16 08:09 | 53.33657 | -2.85073 | 89 ft | 1 kts | 175° |
| 2026-04-16 08:10 | 53.33664 | -2.85075 | 89 ft | 0 kts | 174° |
| 2026-04-16 08:11 | 53.33661 | -2.85075 | 89 ft | 0 kts | 176° |
| 2026-04-16 08:11 | 53.33649 | -2.85074 | 89 ft | 2 kts | 176° |
| 2026-04-16 08:11 | 53.33620 | -2.85071 | 88 ft | 5 kts | 176° |
| 2026-04-16 08:12 | 53.33574 | -2.85065 | 88 ft | 7 kts | 176° |
| 2026-04-16 08:12 | 53.33526 | -2.85015 | 88 ft | 8 kts | 95° |
| 2026-04-16 08:12 | 53.33533 | -2.84889 | 88 ft | 10 kts | 86° |
| 2026-04-16 08:12 | 53.33540 | -2.84743 | 89 ft | 11 kts | 86° |
| 2026-04-16 08:13 | 53.33546 | -2.84586 | 89 ft | 12 kts | 86° |
| 2026-04-16 08:13 | 53.33554 | -2.84426 | 89 ft | 13 kts | 85° |
| 2026-04-16 08:13 | 53.33562 | -2.84252 | 89 ft | 14 kts | 85° |
| 2026-04-16 08:13 | 53.33570 | -2.84066 | 89 ft | 15 kts | 86° |
| 2026-04-16 08:14 | 53.33579 | -2.83856 | 89 ft | 17 kts | 86° |
| 2026-04-16 08:14 | 53.33591 | -2.83625 | 88 ft | 19 kts | 86° |
| 2026-04-16 08:14 | 53.33593 | -2.83382 | 88 ft | 19 kts | 106° |
| 2026-04-16 08:14 | 53.33480 | -2.83294 | 88 ft | 17 kts | 177° |
| 2026-04-16 08:15 | 53.33439 | -2.83355 | 88 ft | 4 kts | 265° |
| 2026-04-16 08:15 | 53.33438 | -2.83360 | 87 ft | 0 kts | 265° |
| 2026-04-16 08:16 | 53.33437 | -2.83404 | 88 ft | 24 kts | 265° |
| 2026-04-16 08:16 | 53.33397 | -2.84264 | 89 ft | 109 kts | 265° |
| 2026-04-16 08:16 | 53.33319 | -2.86002 | 259 ft | 159 kts | 264° |
| 2026-04-16 08:16 | 53.33247 | -2.87860 | 1149 ft | 156 kts | 264° |
| 2026-04-16 08:17 | 53.33160 | -2.89606 | 2141 ft | 150 kts | 261° |
| 2026-04-16 08:17 | 53.33052 | -2.91541 | 2719 ft | 170 kts | 268° |
| 2026-04-16 08:17 | 53.33357 | -2.93672 | 3325 ft | 193 kts | 291° |
| 2026-04-16 08:17 | 53.34165 | -2.95794 | 4000 ft | 214 kts | 298° |
| 2026-04-16 08:18 | 53.34927 | -2.98143 | 4760 ft | 227 kts | 292° |
| 2026-04-16 08:19 | 53.41196 | -3.16940 | 11092 ft | 277 kts | 309° |
| 2026-04-16 08:20 | 53.42568 | -3.19254 | 11984 ft | 280 kts | 309° |
| 2026-04-16 08:20 | 53.43963 | -3.21598 | 12832 ft | 283 kts | 309° |
| 2026-04-16 08:20 | 53.45393 | -3.24014 | 13707 ft | 285 kts | 309° |
| 2026-04-16 08:20 | 53.46821 | -3.26436 | 14541 ft | 287 kts | 309° |
| 2026-04-16 08:21 | 53.48244 | -3.28860 | 15305 ft | 290 kts | 309° |
| 2026-04-16 08:21 | 53.49720 | -3.31388 | 15808 ft | 303 kts | 309° |
| 2026-04-16 08:21 | 53.51235 | -3.33995 | 15998 ft | 320 kts | 309° |
| 2026-04-16 08:21 | 53.52811 | -3.36698 | 16003 ft | 324 kts | 309° |
| 2026-04-16 08:22 | 53.54388 | -3.39394 | 16010 ft | 325 kts | 309° |
| 2026-04-16 08:22 | 53.55967 | -3.42100 | 16011 ft | 325 kts | 309° |
| 2026-04-16 08:22 | 53.57476 | -3.44869 | 16006 ft | 323 kts | 306° |
| 2026-04-16 08:22 | 53.58868 | -3.47799 | 16006 ft | 320 kts | 302° |
| 2026-04-16 08:23 | 53.60173 | -3.50843 | 15995 ft | 321 kts | 301° |
| 2026-04-16 08:23 | 53.61469 | -3.53917 | 16002 ft | 321 kts | 301° |
| 2026-04-16 08:23 | 53.62766 | -3.57000 | 15991 ft | 321 kts | 301° |
| 2026-04-16 08:23 | 53.64075 | -3.60119 | 15995 ft | 321 kts | 301° |
| 2026-04-16 08:24 | 53.65372 | -3.63206 | 15965 ft | 319 kts | 301° |
| 2026-04-16 08:24 | 53.66652 | -3.66260 | 15589 ft | 316 kts | 300° |
| 2026-04-16 08:24 | 53.67899 | -3.69242 | 15084 ft | 316 kts | 300° |
| 2026-04-16 08:24 | 53.69167 | -3.72280 | 14602 ft | 315 kts | 300° |
| 2026-04-16 08:25 | 53.70416 | -3.75271 | 14148 ft | 313 kts | 300° |
| 2026-04-16 08:25 | 53.71665 | -3.78266 | 13667 ft | 312 kts | 300° |
| 2026-04-16 08:25 | 53.72890 | -3.81207 | 13444 ft | 302 kts | 300° |
| 2026-04-16 08:25 | 53.74068 | -3.84028 | 13264 ft | 292 kts | 300° |
| 2026-04-16 08:26 | 53.75225 | -3.86807 | 13074 ft | 283 kts | 300° |
| 2026-04-16 08:26 | 53.76472 | -3.89313 | 12813 ft | 283 kts | 313° |
| 2026-04-16 08:26 | 53.78041 | -3.91355 | 12469 ft | 283 kts | 318° |
| 2026-04-16 08:26 | 53.79642 | -3.93231 | 12079 ft | 283 kts | 319° |
| 2026-04-16 08:27 | 53.81263 | -3.95089 | 11682 ft | 282 kts | 319° |
| 2026-04-16 08:27 | 53.82881 | -3.96941 | 11283 ft | 281 kts | 319° |
| 2026-04-16 08:27 | 53.84504 | -3.98802 | 10874 ft | 280 kts | 319° |
| 2026-04-16 08:27 | 53.86096 | -4.00631 | 10426 ft | 279 kts | 319° |
| 2026-04-16 08:28 | 53.87681 | -4.02464 | 9945 ft | 277 kts | 320° |
| 2026-04-16 08:28 | 53.89274 | -4.04322 | 9467 ft | 275 kts | 320° |
| 2026-04-16 08:28 | 53.90817 | -4.06137 | 8968 ft | 272 kts | 320° |
| 2026-04-16 08:28 | 53.92355 | -4.07953 | 8492 ft | 263 kts | 319° |
| 2026-04-16 08:29 | 53.93830 | -4.09683 | 7968 ft | 257 kts | 319° |
| 2026-04-16 08:29 | 53.95308 | -4.11433 | 7016 ft | 266 kts | 320° |
| 2026-04-16 08:29 | 53.96812 | -4.13240 | 6202 ft | 267 kts | 319° |
| 2026-04-16 08:29 | 53.98298 | -4.15028 | 5499 ft | 263 kts | 320° |
| 2026-04-16 08:30 | 53.99775 | -4.16819 | 4775 ft | 261 kts | 319° |
| 2026-04-16 08:30 | 54.01220 | -4.18580 | 4067 ft | 258 kts | 320° |
| 2026-04-16 08:30 | 54.02679 | -4.20372 | 3360 ft | 255 kts | 319° |
| 2026-04-16 08:30 | 54.04088 | -4.22106 | 2900 ft | 248 kts | 319° |
| 2026-04-16 08:31 | 54.05452 | -4.23771 | 2714 ft | 238 kts | 320° |
| 2026-04-16 08:31 | 54.06779 | -4.25384 | 2574 ft | 229 kts | 319° |
| 2026-04-16 08:31 | 54.07953 | -4.27058 | 2454 ft | 213 kts | 302° |
| 2026-04-16 08:31 | 54.08667 | -4.29152 | 2351 ft | 200 kts | 291° |
| 2026-04-16 08:32 | 54.09238 | -4.31237 | 2269 ft | 192 kts | 290° |
| 2026-04-16 08:32 | 54.09786 | -4.33318 | 2191 ft | 193 kts | 289° |
| 2026-04-16 08:32 | 54.10339 | -4.35436 | 2109 ft | 192 kts | 289° |
| 2026-04-16 08:32 | 54.10875 | -4.37493 | 2040 ft | 190 kts | 289° |
| 2026-04-16 08:33 | 54.11103 | -4.39555 | 2084 ft | 164 kts | 265° |
| 2026-04-16 08:33 | 54.10963 | -4.41391 | 2049 ft | 147 kts | 259° |
| 2026-04-16 08:33 | 54.10782 | -4.43009 | 2015 ft | 131 kts | 257° |
| 2026-04-16 08:33 | 54.10595 | -4.44500 | 2001 ft | 128 kts | 256° |
| 2026-04-16 08:34 | 54.10405 | -4.45981 | 1844 ft | 127 kts | 256° |
| 2026-04-16 08:34 | 54.10218 | -4.47436 | 1672 ft | 127 kts | 256° |
| 2026-04-16 08:34 | 54.10030 | -4.48914 | 1518 ft | 127 kts | 256° |
| 2026-04-16 08:34 | 54.09847 | -4.50355 | 1347 ft | 122 kts | 256° |
| 2026-04-16 08:35 | 54.09671 | -4.51763 | 1165 ft | 121 kts | 256° |
| 2026-04-16 08:35 | 54.09510 | -4.53157 | 984 ft | 120 kts | 257° |
| 2026-04-16 08:35 | 54.09333 | -4.54545 | 838 ft | 120 kts | 253° |
| 2026-04-16 08:35 | 54.09143 | -4.55908 | 670 ft | 120 kts | 256° |
| 2026-04-16 08:36 | 54.08992 | -4.57299 | 512 ft | 119 kts | 257° |
| 2026-04-16 08:36 | 54.08806 | -4.58676 | 371 ft | 119 kts | 253° |
| 2026-04-16 08:36 | 54.08623 | -4.60047 | 208 ft | 118 kts | 256° |
| 2026-04-16 08:36 | 54.08454 | -4.61402 | 47 ft | 116 kts | 256° |
| 2026-04-16 08:37 | 54.08326 | -4.62404 | 42 ft | 46 kts | 256° |
| 2026-04-16 08:37 | 54.08283 | -4.62759 | 44 ft | 13 kts | 273° |
| 2026-04-16 08:37 | 54.08319 | -4.62896 | 46 ft | 12 kts | 297° |
| 2026-04-16 08:37 | 54.08355 | -4.63022 | 48 ft | 11 kts | 296° |
| 2026-04-16 08:38 | 54.08389 | -4.63144 | 50 ft | 10 kts | 286° |
| 2026-04-16 08:38 | 54.08379 | -4.63272 | 51 ft | 11 kts | 258° |
| 2026-04-16 08:38 | 54.08387 | -4.63373 | 51 ft | 8 kts | 334° |
| 2026-04-16 08:38 | 54.08447 | -4.63384 | 52 ft | 8 kts | 19° |
| 2026-04-16 08:39 | 54.08502 | -4.63333 | 54 ft | 8 kts | 22° |
| 2026-04-16 08:39 | 54.08549 | -4.63292 | 54 ft | 7 kts | 41° |
| 2026-04-16 08:39 | 54.08564 | -4.63267 | 54 ft | 1 kts | 45° |
| 2026-04-16 08:39 | 54.08564 | -4.63266 | 54 ft | 0 kts | 45° |